Vivien A — TCYC4 — position and weather

sailwx.info

Track history (hours):
 
Tides and Currents Weather Stations Pressure Air Temp Water Temp Dewpoint Dewpoint Depression Visibility Wind Speed Wind Dir Waves Ship Positions

Vivien A

Last reported at 2017-Sep-20 14:35 UTC. Time now 2017-Sep-26 03:51 UTC.
Position N 34°26' W 007°09'.

Length 210 m; draft 8.6 m.

Type: Ship (hazmat cat B). MMSI: 271040635.

Date/timePositionNaut miles runAvg speedWind from/ knotsBaromVisibWave heightAir tempDewpointWater temp
2017-Sep-20 14:35N 34°26' W 007°09'4116.4
2017-Sep-20 12:07N 35°03' W 006°48'58 2.6
2017-Sep-19 13:57N 35°55' W 006°19'12712.7
2017-Sep-19 03:56N 36°28' W 008°51'714.8
2017-Sep-19 03:27N 36°29' W 008°60'9414.1
2017-Sep-18 20:47N 37°53' W 009°53'414.8
2017-Sep-18 20:30N 37°57' W 009°54'714.6
2017-Sep-18 20:00N 38°04' W 009°56'815.0
2017-Sep-18 19:27N 38°12' W 009°58'715.2
2017-Sep-18 18:59N 38°19' W 010°00'715.3
2017-Sep-18 18:30N 38°26' W 010°02'915.3
2017-Sep-18 17:56N 38°35' W 010°04'715.9
2017-Sep-18 17:29N 38°42' W 010°06'815.7
2017-Sep-18 16:57N 38°50' W 010°06'715.5
2017-Sep-18 16:30N 38°57' W 010°06'815.4
2017-Sep-18 16:00N 39°05' W 010°06'815.3
2017-Sep-18 15:30N 39°13' W 010°06'714.8
2017-Sep-18 15:00N 39°20' W 010°06'714.9
2017-Sep-18 14:30N 39°27' W 010°06'915.0
2017-Sep-18 13:54N 39°36' W 010°06'614.8
2017-Sep-18 13:30N 39°43' W 010°06'64414.1
2017-Sep-16 15:49N 49°33' W 004°06'613.4
2017-Sep-16 15:21N 49°37' W 003°58'3 7.8
2017-Sep-16 15:00N 49°37' W 003°54'1 1.5
2017-Sep-16 14:30N 49°37' W 003°53'612.9
2017-Sep-16 14:00N 49°40' W 003°44'713.4
2017-Sep-16 13:30N 49°43' W 003°35'713.6
2017-Sep-16 13:00N 49°47' W 003°26'714.0
2017-Sep-16 12:31N 49°50' W 003°17'714.5
2017-Sep-16 12:01N 49°54' W 003°07'815.0
2017-Sep-16 11:31N 49°58' W 002°57'815.5
2017-Sep-16 11:01N 50°01' W 002°45'9213.7
2017-Sep-16 04:16N 50°26' W 000°27'311.9
2017-Sep-16 04:00N 50°26' W 000°22'612.2
2017-Sep-16 03:30N 50°28' W 000°13'612.6
2017-Sep-16 03:00N 50°30' W 000°03'613.0
2017-Sep-16 02:30N 50°31' E 000°07'713.5
2017-Sep-16 02:00N 50°33' E 000°17'713.9
2017-Sep-16 01:31N 50°35' E 000°27'714.1
2017-Sep-16 01:01N 50°38' E 000°38'714.4
2017-Sep-16 00:31N 50°42' E 000°47'714.4
2017-Sep-16 00:01N 50°46' E 000°56'714.1
2017-Sep-15 23:30N 50°50' E 001°05'713.8
2017-Sep-15 23:00N 50°55' E 001°13'613.4
2017-Sep-15 22:30N 51°00' E 001°20'612.7
2017-Sep-15 22:00N 51°04' E 001°27'612.3
2017-Sep-15 21:30N 51°08' E 001°35'612.0
2017-Sep-15 21:00N 51°12' E 001°43'612.0
2017-Sep-15 20:30N 51°17' E 001°48'612.4
2017-Sep-15 20:01N 51°22' E 001°53'612.7
2017-Sep-15 19:30N 51°28' E 001°58'713.2
2017-Sep-15 19:00N 51°33' E 002°04'713.3
2017-Sep-15 18:29N 51°38' E 002°12'913.8
2017-Sep-15 17:50N 51°45' E 002°22'10613.1
2017-Sep-15 09:45N 53°05' E 004°14'14411.6
2017-Sep-14 21:21N 54°01' E 007°58'512.9
2017-Sep-14 21:00N 54°01' E 008°06'611.6
2017-Sep-14 20:28N 54°00' E 008°16'1115.8
2017-Sep-14 19:46N 53°58' E 008°35'415.6
2017-Sep-14 19:30N 53°55' E 008°40'713.6
2017-Sep-14 19:01N 53°50' E 008°48'713.6
2017-Sep-14 18:30N 53°51' E 008°59'612.1
2017-Sep-14 18:00N 53°53' E 009°09'5 9.8
2017-Sep-14 17:30N 53°52' E 009°17'611.1
2017-Sep-14 17:01N 53°47' E 009°23'510.9
2017-Sep-14 16:30N 53°43' E 009°29'5 9.0
2017-Sep-14 16:01N 53°39' E 009°31'611.8
2017-Sep-14 15:30N 53°35' E 009°38'611.1
2017-Sep-14 15:00N 53°33' E 009°47'5 9.3
2017-Sep-14 14:30N 53°33' E 009°55'2 4.6
2017-Sep-14 13:59N 53°30' E 009°56'0 0.0
2017-Sep-14 13:29N 53°30' E 009°56'0 0.0
2017-Sep-14 12:59N 53°30' E 009°56'0 0.0
2017-Sep-14 12:29N 53°30' E 009°56'0 0.0
2017-Sep-14 11:59N 53°30' E 009°56'0 0.0
2017-Sep-14 11:23N 53°30' E 009°56'0 0.1
2017-Sep-14 10:59N 53°30' E 009°56'0 0.0
2017-Sep-14 10:29N 53°30' E 009°56'0 0.0
2017-Sep-14 09:59N 53°30' E 009°56'0 0.0
2017-Sep-14 09:29N 53°30' E 009°56'0 0.0
2017-Sep-14 08:59N 53°30' E 009°56'0 0.0
2017-Sep-14 08:29N 53°30' E 009°56'0 0.0
2017-Sep-14 07:59N 53°30' E 009°56'0 0.0
2017-Sep-14 07:26N 53°30' E 009°56'0 0.0
2017-Sep-14 06:59N 53°30' E 009°56'0 0.0
2017-Sep-14 06:29N 53°30' E 009°56'0 0.0
2017-Sep-14 05:59N 53°30' E 009°56'0 0.0
2017-Sep-14 05:29N 53°30' E 009°56'0 0.0
2017-Sep-14 04:59N 53°30' E 009°56'0 0.0
2017-Sep-14 04:29N 53°30' E 009°56'0 0.0
2017-Sep-14 03:59N 53°30' E 009°56'0 0.0
2017-Sep-14 03:26N 53°30' E 009°56'0 0.0
2017-Sep-14 02:59N 53°30' E 009°56'0 0.1
2017-Sep-14 02:29N 53°30' E 009°56'0 0.0
2017-Sep-14 01:59N 53°30' E 009°56'0 0.0
2017-Sep-14 01:29N 53°30' E 009°56'0 0.0
2017-Sep-14 00:59N 53°30' E 009°56'0 0.0
2017-Sep-14 00:29N 53°30' E 009°56'0 0.0
2017-Sep-13 23:59N 53°30' E 009°56'0 0.0
2017-Sep-13 23:29N 53°30' E 009°56'0 0.0
2017-Sep-13 22:59N 53°30' E 009°56'0 0.0
2017-Sep-13 22:29N 53°30' E 009°56'0 0.0
2017-Sep-13 21:59N 53°30' E 009°56'0 0.0
2017-Sep-13 21:29N 53°30' E 009°56'0 0.0
2017-Sep-13 20:59N 53°30' E 009°56'0 0.0
2017-Sep-13 20:29N 53°30' E 009°56'0 0.0
2017-Sep-13 19:59N 53°30' E 009°56'0 0.0
2017-Sep-13 19:29N 53°30' E 009°56'0 0.0
2017-Sep-13 18:59N 53°30' E 009°56'0 0.0
2017-Sep-13 18:29N 53°30' E 009°56'0 0.0
2017-Sep-13 17:59N 53°30' E 009°56'0 0.0
2017-Sep-13 17:29N 53°30' E 009°56'0 0.0
2017-Sep-13 16:59N 53°30' E 009°56'0 0.0
2017-Sep-13 16:29N 53°30' E 009°56'0 0.0
2017-Sep-13 15:59N 53°30' E 009°56'0 0.0
2017-Sep-13 15:29N 53°30' E 009°56'0 0.0
2017-Sep-13 14:59N 53°30' E 009°56'0 0.0
2017-Sep-13 14:29N 53°30' E 009°56'0 0.0
2017-Sep-13 13:59N 53°30' E 009°56'0 0.0
2017-Sep-13 13:30N 53°30' E 009°56'0 0.5
2017-Sep-13 13:00N 53°30' E 009°56'3 5.0
2017-Sep-13 12:30N 53°32' E 009°55'5 9.7
2017-Sep-13 12:00N 53°33' E 009°47'5 9.8
2017-Sep-13 11:30N 53°34' E 009°39'611.1
2017-Sep-13 11:00N 53°38' E 009°32'510.4
2017-Sep-13 10:30N 53°43' E 009°29'611.0
2017-Sep-13 10:01N 53°47' E 009°23'611.6
2017-Sep-13 09:31N 53°52' E 009°18'611.4
2017-Sep-13 09:01N 53°53' E 009°08'611.8
2017-Sep-13 08:31N 53°51' E 008°59'713.0
2017-Sep-13 08:00N 53°50' E 008°48'611.6
2017-Sep-13 07:30N 53°54' E 008°41'612.5
2017-Sep-13 07:00N 53°58' E 008°32'714.5
2017-Sep-13 06:30N 53°59' E 008°20'612.5
2017-Sep-13 06:00N 53°60' E 008°09'510.1
2017-Sep-13 05:30N 53°59' E 008°01'3 5.2
2017-Sep-13 05:00N 53°58' E 007°57'3 6.5
2017-Sep-13 04:30N 53°57' E 007°51'510.3
2017-Sep-13 04:00N 53°56' E 007°43'713.6
2017-Sep-13 03:29N 53°54' E 007°31'7317.9
2017-Sep-12 23:26N 53°36' E 005°32'818.3
2017-Sep-12 23:01N 53°34' E 005°20'918.5
2017-Sep-12 22:31N 53°31' E 005°05'918.9
2017-Sep-12 22:01N 53°27' E 004°51'917.9
2017-Sep-12 21:30N 53°20' E 004°40'918.6
2017-Sep-12 21:00N 53°12' E 004°33'918.5
2017-Sep-12 20:30N 53°04' E 004°25'1018.4
2017-Sep-12 19:59N 52°56' E 004°18'918.5
2017-Sep-12 19:30N 52°48' E 004°10'1018.5
2017-Sep-12 18:59N 52°40' E 004°01'5593.8
2017-Sep-12 18:24N 51°51' E 003°20'0 0.0
2017-Sep-12 18:00N 51°51' E 003°20'0 0.0
2017-Sep-12 17:30N 51°51' E 003°20'0 0.0
2017-Sep-12 17:00N 51°51' E 003°20'0 0.0
2017-Sep-12 16:30N 51°51' E 003°20'0 0.0
2017-Sep-12 16:00N 51°51' E 003°20'2 3.1
2017-Sep-12 15:30N 51°50' E 003°19'611.5
2017-Sep-12 15:00N 51°45' E 003°15'5 9.8
2017-Sep-12 14:30N 51°40' E 003°12'714.1
2017-Sep-12 14:00N 51°33' E 003°09'714.3
2017-Sep-12 13:31N 51°28' E 003°01'510.7
2017-Sep-12 13:00N 51°24' E 003°07'715.0
2017-Sep-12 12:30N 51°25' E 003°19'714.8
2017-Sep-12 12:01N 51°25' E 003°30'5 9.3
2017-Sep-12 11:30N 51°26' E 003°38'510.9
2017-Sep-12 11:00N 51°23' E 003°44'713.6
2017-Sep-12 10:30N 51°22' E 003°55'510.2
2017-Sep-12 10:00N 51°25' E 004°02'611.9
2017-Sep-12 09:31N 51°24' E 004°11'612.1
2017-Sep-12 09:00N 51°19' E 004°16'1 2.3
2017-Sep-12 08:29N 51°18' E 004°16'0 0.0
2017-Sep-12 07:53N 51°18' E 004°16'0 0.0
2017-Sep-12 07:29N 51°18' E 004°16'0 0.0
2017-Sep-12 06:59N 51°18' E 004°16'0 0.0
2017-Sep-12 06:29N 51°18' E 004°16'0 0.0
2017-Sep-12 05:59N 51°18' E 004°16'0 0.0
2017-Sep-12 05:29N 51°18' E 004°16'0 0.0
2017-Sep-12 04:59N 51°18' E 004°16'0 0.0
2017-Sep-12 04:29N 51°18' E 004°16'0 0.0
2017-Sep-12 03:59N 51°18' E 004°16'0 0.0
2017-Sep-12 03:29N 51°18' E 004°16'0 0.0
2017-Sep-12 02:59N 51°18' E 004°16'0 0.0
2017-Sep-12 02:26N 51°18' E 004°16'0 0.0
2017-Sep-12 01:59N 51°18' E 004°16'0 0.0
2017-Sep-12 01:29N 51°18' E 004°16'0 0.0
2017-Sep-12 00:59N 51°18' E 004°16'0 0.0
2017-Sep-12 00:29N 51°18' E 004°16'0 0.0
2017-Sep-11 23:59N 51°18' E 004°16'0 0.0
2017-Sep-11 23:29N 51°18' E 004°16'0 0.0
2017-Sep-11 22:59N 51°18' E 004°16'0 0.0
2017-Sep-11 22:29N 51°18' E 004°16'0 0.0
2017-Sep-11 21:59N 51°18' E 004°16'0 0.0
2017-Sep-11 21:29N 51°18' E 004°16'0 0.0
2017-Sep-11 20:59N 51°18' E 004°16'0 0.0
2017-Sep-11 20:29N 51°18' E 004°16'0 0.0
2017-Sep-11 19:56N 51°18' E 004°16'0 0.0
2017-Sep-11 19:29N 51°18' E 004°16'0 0.0
2017-Sep-11 18:59N 51°18' E 004°16'0 0.0
2017-Sep-11 18:29N 51°18' E 004°16'0 0.1
2017-Sep-11 18:00N 51°17' E 004°16'1 3.0
2017-Sep-11 17:30N 51°19' E 004°16'4 7.3
2017-Sep-11 17:00N 51°22' E 004°13'510.7
2017-Sep-11 16:30N 51°22' E 004°05'510.2
2017-Sep-11 16:00N 51°25' E 003°58'714.8
2017-Sep-11 15:30N 51°21' E 003°48'714.9
2017-Sep-11 15:00N 51°26' E 003°40'510.3
2017-Sep-11 14:30N 51°25' E 003°32'612.0
2017-Sep-11 14:00N 51°24' E 003°22'715.0
2017-Sep-11 13:30N 51°24' E 003°10'713.4
2017-Sep-11 13:00N 51°23' E 002°60'713.1
2017-Sep-11 12:31N 51°22' E 002°49'5 9.7
2017-Sep-11 12:00N 51°23' E 002°42'4 7.3
2017-Sep-11 11:30N 51°24' E 002°36'1 1.5
2017-Sep-11 10:55N 51°25' E 002°37'0 0.1
2017-Sep-11 10:25N 51°25' E 002°37'0 0.2
2017-Sep-11 09:58N 51°25' E 002°37'0 0.1
2017-Sep-11 09:22N 51°25' E 002°37'0 0.1
2017-Sep-11 08:59N 51°25' E 002°37'0 0.0
2017-Sep-11 08:25N 51°25' E 002°37'0 0.0
2017-Sep-11 07:58N 51°25' E 002°37'0 0.1
2017-Sep-11 07:28N 51°25' E 002°37'0 0.0
2017-Sep-11 06:55N 51°25' E 002°37'0 0.1
2017-Sep-11 06:28N 51°25' E 002°37'0 0.1
2017-Sep-11 05:58N 51°25' E 002°37'0 0.0
2017-Sep-11 05:10N 51°25' E 002°37'0 0.1
2017-Sep-11 04:53N 51°25' E 002°37'0 0.0
2017-Sep-11 04:25N 51°25' E 002°37'0 0.0
2017-Sep-11 03:55N 51°25' E 002°37'0 0.0
2017-Sep-11 03:23N 51°25' E 002°37'0 0.0
2017-Sep-11 02:58N 51°25' E 002°37'0 0.1
2017-Sep-11 02:25N 51°25' E 002°37'0 0.0
2017-Sep-11 01:55N 51°25' E 002°37'0 0.3
2017-Sep-11 01:30N 51°25' E 002°37'3 5.9
2017-Sep-11 01:00N 51°22' E 002°34'612.9
2017-Sep-11 00:30N 51°20' E 002°24'612.6
2017-Sep-11 00:00N 51°18' E 002°15'612.1
2017-Sep-10 23:30N 51°15' E 002°07'611.8
2017-Sep-10 23:00N 51°12' E 001°59'611.7
2017-Sep-10 22:30N 51°09' E 001°51'611.4
2017-Sep-10 22:00N 51°05' E 001°44'611.2
2017-Sep-10 21:30N 51°01' E 001°37'611.3
2017-Sep-10 21:00N 50°57' E 001°31'611.2
2017-Sep-10 20:30N 50°52' E 001°27'911.8
2017-Sep-10 19:47N 50°44' E 001°23'5711.8
2017-Sep-10 15:00N 50°20' E 000°03'  
Track history (hours):
 
Tides and Currents Weather Stations Pressure Air Temp Water Temp Dewpoint Dewpoint Depression Visibility Wind Speed Wind Dir Waves Ship Positions

Vivien A

Last reported at 2017-Sep-20 14:35 UTC. Time now 2017-Sep-26 03:51 UTC.
Position N 34°26' W 007°09'.

Length 210 m; draft 8.6 m.

Type: Ship (hazmat cat B). MMSI: 271040635.

Date/timePositionNaut miles runAvg speedWind from/ knotsBaromVisibWave heightAir tempDewpointWater temp
2017-Sep-20 14:35N 34°26' W 007°09'4116.4
2017-Sep-20 12:07N 35°03' W 006°48'58 2.6
2017-Sep-19 13:57N 35°55' W 006°19'12712.7
2017-Sep-19 03:56N 36°28' W 008°51'714.8
2017-Sep-19 03:27N 36°29' W 008°60'9414.1
2017-Sep-18 20:47N 37°53' W 009°53'414.8
2017-Sep-18 20:30N 37°57' W 009°54'714.6
2017-Sep-18 20:00N 38°04' W 009°56'815.0
2017-Sep-18 19:27N 38°12' W 009°58'715.2
2017-Sep-18 18:59N 38°19' W 010°00'715.3
2017-Sep-18 18:30N 38°26' W 010°02'915.3
2017-Sep-18 17:56N 38°35' W 010°04'715.9
2017-Sep-18 17:29N 38°42' W 010°06'815.7
2017-Sep-18 16:57N 38°50' W 010°06'715.5
2017-Sep-18 16:30N 38°57' W 010°06'815.4
2017-Sep-18 16:00N 39°05' W 010°06'815.3
2017-Sep-18 15:30N 39°13' W 010°06'714.8
2017-Sep-18 15:00N 39°20' W 010°06'714.9
2017-Sep-18 14:30N 39°27' W 010°06'915.0
2017-Sep-18 13:54N 39°36' W 010°06'614.8
2017-Sep-18 13:30N 39°43' W 010°06'64414.1
2017-Sep-16 15:49N 49°33' W 004°06'613.4
2017-Sep-16 15:21N 49°37' W 003°58'3 7.8
2017-Sep-16 15:00N 49°37' W 003°54'1 1.5
2017-Sep-16 14:30N 49°37' W 003°53'612.9
2017-Sep-16 14:00N 49°40' W 003°44'713.4
2017-Sep-16 13:30N 49°43' W 003°35'713.6
2017-Sep-16 13:00N 49°47' W 003°26'714.0
2017-Sep-16 12:31N 49°50' W 003°17'714.5
2017-Sep-16 12:01N 49°54' W 003°07'815.0
2017-Sep-16 11:31N 49°58' W 002°57'815.5
2017-Sep-16 11:01N 50°01' W 002°45'9213.7
2017-Sep-16 04:16N 50°26' W 000°27'311.9
2017-Sep-16 04:00N 50°26' W 000°22'612.2
2017-Sep-16 03:30N 50°28' W 000°13'612.6
2017-Sep-16 03:00N 50°30' W 000°03'613.0
2017-Sep-16 02:30N 50°31' E 000°07'713.5
2017-Sep-16 02:00N 50°33' E 000°17'713.9
2017-Sep-16 01:31N 50°35' E 000°27'714.1
2017-Sep-16 01:01N 50°38' E 000°38'714.4
2017-Sep-16 00:31N 50°42' E 000°47'714.4
2017-Sep-16 00:01N 50°46' E 000°56'714.1
2017-Sep-15 23:30N 50°50' E 001°05'713.8
2017-Sep-15 23:00N 50°55' E 001°13'613.4
2017-Sep-15 22:30N 51°00' E 001°20'612.7
2017-Sep-15 22:00N 51°04' E 001°27'612.3
2017-Sep-15 21:30N 51°08' E 001°35'612.0
2017-Sep-15 21:00N 51°12' E 001°43'612.0
2017-Sep-15 20:30N 51°17' E 001°48'612.4
2017-Sep-15 20:01N 51°22' E 001°53'612.7
2017-Sep-15 19:30N 51°28' E 001°58'713.2
2017-Sep-15 19:00N 51°33' E 002°04'713.3
2017-Sep-15 18:29N 51°38' E 002°12'913.8
2017-Sep-15 17:50N 51°45' E 002°22'10613.1
2017-Sep-15 09:45N 53°05' E 004°14'14411.6
2017-Sep-14 21:21N 54°01' E 007°58'512.9
2017-Sep-14 21:00N 54°01' E 008°06'611.6
2017-Sep-14 20:28N 54°00' E 008°16'1115.8
2017-Sep-14 19:46N 53°58' E 008°35'415.6
2017-Sep-14 19:30N 53°55' E 008°40'713.6
2017-Sep-14 19:01N 53°50' E 008°48'713.6
2017-Sep-14 18:30N 53°51' E 008°59'612.1
2017-Sep-14 18:00N 53°53' E 009°09'5 9.8
2017-Sep-14 17:30N 53°52' E 009°17'611.1
2017-Sep-14 17:01N 53°47' E 009°23'510.9
2017-Sep-14 16:30N 53°43' E 009°29'5 9.0
2017-Sep-14 16:01N 53°39' E 009°31'611.8
2017-Sep-14 15:30N 53°35' E 009°38'611.1
2017-Sep-14 15:00N 53°33' E 009°47'5 9.3
2017-Sep-14 14:30N 53°33' E 009°55'2 4.6
2017-Sep-14 13:59N 53°30' E 009°56'0 0.0
2017-Sep-14 13:29N 53°30' E 009°56'0 0.0
2017-Sep-14 12:59N 53°30' E 009°56'0 0.0
2017-Sep-14 12:29N 53°30' E 009°56'0 0.0
2017-Sep-14 11:59N 53°30' E 009°56'0 0.0
2017-Sep-14 11:23N 53°30' E 009°56'0 0.1
2017-Sep-14 10:59N 53°30' E 009°56'0 0.0
2017-Sep-14 10:29N 53°30' E 009°56'0 0.0
2017-Sep-14 09:59N 53°30' E 009°56'0 0.0
2017-Sep-14 09:29N 53°30' E 009°56'0 0.0
2017-Sep-14 08:59N 53°30' E 009°56'0 0.0
2017-Sep-14 08:29N 53°30' E 009°56'0 0.0
2017-Sep-14 07:59N 53°30' E 009°56'0 0.0
2017-Sep-14 07:26N 53°30' E 009°56'0 0.0
2017-Sep-14 06:59N 53°30' E 009°56'0 0.0
2017-Sep-14 06:29N 53°30' E 009°56'0 0.0
2017-Sep-14 05:59N 53°30' E 009°56'0 0.0
2017-Sep-14 05:29N 53°30' E 009°56'0 0.0
2017-Sep-14 04:59N 53°30' E 009°56'0 0.0
2017-Sep-14 04:29N 53°30' E 009°56'0 0.0
2017-Sep-14 03:59N 53°30' E 009°56'0 0.0
2017-Sep-14 03:26N 53°30' E 009°56'0 0.0
2017-Sep-14 02:59N 53°30' E 009°56'0 0.1
2017-Sep-14 02:29N 53°30' E 009°56'0 0.0
2017-Sep-14 01:59N 53°30' E 009°56'0 0.0
2017-Sep-14 01:29N 53°30' E 009°56'0 0.0
2017-Sep-14 00:59N 53°30' E 009°56'0 0.0
2017-Sep-14 00:29N 53°30' E 009°56'0 0.0
2017-Sep-13 23:59N 53°30' E 009°56'0 0.0
2017-Sep-13 23:29N 53°30' E 009°56'0 0.0
2017-Sep-13 22:59N 53°30' E 009°56'0 0.0
2017-Sep-13 22:29N 53°30' E 009°56'0 0.0
2017-Sep-13 21:59N 53°30' E 009°56'0 0.0
2017-Sep-13 21:29N 53°30' E 009°56'0 0.0
2017-Sep-13 20:59N 53°30' E 009°56'0 0.0
2017-Sep-13 20:29N 53°30' E 009°56'0 0.0
2017-Sep-13 19:59N 53°30' E 009°56'0 0.0
2017-Sep-13 19:29N 53°30' E 009°56'0 0.0
2017-Sep-13 18:59N 53°30' E 009°56'0 0.0
2017-Sep-13 18:29N 53°30' E 009°56'0 0.0
2017-Sep-13 17:59N 53°30' E 009°56'0 0.0
2017-Sep-13 17:29N 53°30' E 009°56'0 0.0
2017-Sep-13 16:59N 53°30' E 009°56'0 0.0
2017-Sep-13 16:29N 53°30' E 009°56'0 0.0
2017-Sep-13 15:59N 53°30' E 009°56'0 0.0
2017-Sep-13 15:29N 53°30' E 009°56'0 0.0
2017-Sep-13 14:59N 53°30' E 009°56'0 0.0
2017-Sep-13 14:29N 53°30' E 009°56'0 0.0
2017-Sep-13 13:59N 53°30' E 009°56'0 0.0
2017-Sep-13 13:30N 53°30' E 009°56'0 0.5
2017-Sep-13 13:00N 53°30' E 009°56'3 5.0
2017-Sep-13 12:30N 53°32' E 009°55'5 9.7
2017-Sep-13 12:00N 53°33' E 009°47'5 9.8
2017-Sep-13 11:30N 53°34' E 009°39'611.1
2017-Sep-13 11:00N 53°38' E 009°32'510.4
2017-Sep-13 10:30N 53°43' E 009°29'611.0
2017-Sep-13 10:01N 53°47' E 009°23'611.6
2017-Sep-13 09:31N 53°52' E 009°18'611.4
2017-Sep-13 09:01N 53°53' E 009°08'611.8
2017-Sep-13 08:31N 53°51' E 008°59'713.0
2017-Sep-13 08:00N 53°50' E 008°48'611.6
2017-Sep-13 07:30N 53°54' E 008°41'612.5
2017-Sep-13 07:00N 53°58' E 008°32'714.5
2017-Sep-13 06:30N 53°59' E 008°20'612.5
2017-Sep-13 06:00N 53°60' E 008°09'510.1
2017-Sep-13 05:30N 53°59' E 008°01'3 5.2
2017-Sep-13 05:00N 53°58' E 007°57'3 6.5
2017-Sep-13 04:30N 53°57' E 007°51'510.3
2017-Sep-13 04:00N 53°56' E 007°43'713.6
2017-Sep-13 03:29N 53°54' E 007°31'7317.9
2017-Sep-12 23:26N 53°36' E 005°32'818.3
2017-Sep-12 23:01N 53°34' E 005°20'918.5
2017-Sep-12 22:31N 53°31' E 005°05'918.9
2017-Sep-12 22:01N 53°27' E 004°51'917.9
2017-Sep-12 21:30N 53°20' E 004°40'918.6
2017-Sep-12 21:00N 53°12' E 004°33'918.5
2017-Sep-12 20:30N 53°04' E 004°25'1018.4
2017-Sep-12 19:59N 52°56' E 004°18'918.5
2017-Sep-12 19:30N 52°48' E 004°10'1018.5
2017-Sep-12 18:59N 52°40' E 004°01'5593.8
2017-Sep-12 18:24N 51°51' E 003°20'0 0.0
2017-Sep-12 18:00N 51°51' E 003°20'0 0.0
2017-Sep-12 17:30N 51°51' E 003°20'0 0.0
2017-Sep-12 17:00N 51°51' E 003°20'0 0.0
2017-Sep-12 16:30N 51°51' E 003°20'0 0.0
2017-Sep-12 16:00N 51°51' E 003°20'2 3.1
2017-Sep-12 15:30N 51°50' E 003°19'611.5
2017-Sep-12 15:00N 51°45' E 003°15'5 9.8
2017-Sep-12 14:30N 51°40' E 003°12'714.1
2017-Sep-12 14:00N 51°33' E 003°09'714.3
2017-Sep-12 13:31N 51°28' E 003°01'510.7
2017-Sep-12 13:00N 51°24' E 003°07'715.0
2017-Sep-12 12:30N 51°25' E 003°19'714.8
2017-Sep-12 12:01N 51°25' E 003°30'5 9.3
2017-Sep-12 11:30N 51°26' E 003°38'510.9
2017-Sep-12 11:00N 51°23' E 003°44'713.6
2017-Sep-12 10:30N 51°22' E 003°55'510.2
2017-Sep-12 10:00N 51°25' E 004°02'611.9
2017-Sep-12 09:31N 51°24' E 004°11'612.1
2017-Sep-12 09:00N 51°19' E 004°16'1 2.3
2017-Sep-12 08:29N 51°18' E 004°16'0 0.0
2017-Sep-12 07:53N 51°18' E 004°16'0 0.0
2017-Sep-12 07:29N 51°18' E 004°16'0 0.0
2017-Sep-12 06:59N 51°18' E 004°16'0 0.0
2017-Sep-12 06:29N 51°18' E 004°16'0 0.0
2017-Sep-12 05:59N 51°18' E 004°16'0 0.0
2017-Sep-12 05:29N 51°18' E 004°16'0 0.0
2017-Sep-12 04:59N 51°18' E 004°16'0 0.0
2017-Sep-12 04:29N 51°18' E 004°16'0 0.0
2017-Sep-12 03:59N 51°18' E 004°16'0 0.0
2017-Sep-12 03:29N 51°18' E 004°16'0 0.0
2017-Sep-12 02:59N 51°18' E 004°16'0 0.0
2017-Sep-12 02:26N 51°18' E 004°16'0 0.0
2017-Sep-12 01:59N 51°18' E 004°16'0 0.0
2017-Sep-12 01:29N 51°18' E 004°16'0 0.0
2017-Sep-12 00:59N 51°18' E 004°16'0 0.0
2017-Sep-12 00:29N 51°18' E 004°16'0 0.0
2017-Sep-11 23:59N 51°18' E 004°16'0 0.0
2017-Sep-11 23:29N 51°18' E 004°16'0 0.0
2017-Sep-11 22:59N 51°18' E 004°16'0 0.0
2017-Sep-11 22:29N 51°18' E 004°16'0 0.0
2017-Sep-11 21:59N 51°18' E 004°16'0 0.0
2017-Sep-11 21:29N 51°18' E 004°16'0 0.0
2017-Sep-11 20:59N 51°18' E 004°16'0 0.0
2017-Sep-11 20:29N 51°18' E 004°16'0 0.0
2017-Sep-11 19:56N 51°18' E 004°16'0 0.0
2017-Sep-11 19:29N 51°18' E 004°16'0 0.0
2017-Sep-11 18:59N 51°18' E 004°16'0 0.0
2017-Sep-11 18:29N 51°18' E 004°16'0 0.1
2017-Sep-11 18:00N 51°17' E 004°16'1 3.0
2017-Sep-11 17:30N 51°19' E 004°16'4 7.3
2017-Sep-11 17:00N 51°22' E 004°13'510.7
2017-Sep-11 16:30N 51°22' E 004°05'510.2
2017-Sep-11 16:00N 51°25' E 003°58'714.8
2017-Sep-11 15:30N 51°21' E 003°48'714.9
2017-Sep-11 15:00N 51°26' E 003°40'510.3
2017-Sep-11 14:30N 51°25' E 003°32'612.0
2017-Sep-11 14:00N 51°24' E 003°22'715.0
2017-Sep-11 13:30N 51°24' E 003°10'713.4
2017-Sep-11 13:00N 51°23' E 002°60'713.1
2017-Sep-11 12:31N 51°22' E 002°49'5 9.7
2017-Sep-11 12:00N 51°23' E 002°42'4 7.3
2017-Sep-11 11:30N 51°24' E 002°36'1 1.5
2017-Sep-11 10:55N 51°25' E 002°37'0 0.1
2017-Sep-11 10:25N 51°25' E 002°37'0 0.2
2017-Sep-11 09:58N 51°25' E 002°37'0 0.1
2017-Sep-11 09:22N 51°25' E 002°37'0 0.1
2017-Sep-11 08:59N 51°25' E 002°37'0 0.0
2017-Sep-11 08:25N 51°25' E 002°37'0 0.0
2017-Sep-11 07:58N 51°25' E 002°37'0 0.1
2017-Sep-11 07:28N 51°25' E 002°37'0 0.0
2017-Sep-11 06:55N 51°25' E 002°37'0 0.1
2017-Sep-11 06:28N 51°25' E 002°37'0 0.1
2017-Sep-11 05:58N 51°25' E 002°37'0 0.0
2017-Sep-11 05:10N 51°25' E 002°37'0 0.1
2017-Sep-11 04:53N 51°25' E 002°37'0 0.0
2017-Sep-11 04:25N 51°25' E 002°37'0 0.0
2017-Sep-11 03:55N 51°25' E 002°37'0 0.0
2017-Sep-11 03:23N 51°25' E 002°37'0 0.0
2017-Sep-11 02:58N 51°25' E 002°37'0 0.1
2017-Sep-11 02:25N 51°25' E 002°37'0 0.0
2017-Sep-11 01:55N 51°25' E 002°37'0 0.3
2017-Sep-11 01:30N 51°25' E 002°37'3 5.9
2017-Sep-11 01:00N 51°22' E 002°34'612.9
2017-Sep-11 00:30N 51°20' E 002°24'612.6
2017-Sep-11 00:00N 51°18' E 002°15'612.1
2017-Sep-10 23:30N 51°15' E 002°07'611.8
2017-Sep-10 23:00N 51°12' E 001°59'611.7
2017-Sep-10 22:30N 51°09' E 001°51'611.4
2017-Sep-10 22:00N 51°05' E 001°44'611.2
2017-Sep-10 21:30N 51°01' E 001°37'611.3
2017-Sep-10 21:00N 50°57' E 001°31'611.2
2017-Sep-10 20:30N 50°52' E 001°27'911.8
2017-Sep-10 19:47N 50°44' E 001°23'5711.8
2017-Sep-10 15:00N 50°20' E 000°03'  

Dump ship's entire track history